sensor_id;sensor_type;location;lat;lon;timestamp;temperature;humidity
3416;DHT22;1721;51.238;9.562;2024-02-26T00:00:34;4.80;90.40
3416;DHT22;1721;51.238;9.562;2024-02-26T00:03:00;4.80;90.00
3416;DHT22;1721;51.238;9.562;2024-02-26T00:05:26;4.90;90.10
3416;DHT22;1721;51.238;9.562;2024-02-26T00:07:52;4.90;90.00
3416;DHT22;1721;51.238;9.562;2024-02-26T00:10:17;5.00;90.00
3416;DHT22;1721;51.238;9.562;2024-02-26T00:12:43;5.10;89.80
3416;DHT22;1721;51.238;9.562;2024-02-26T00:15:10;5.00;89.60
3416;DHT22;1721;51.238;9.562;2024-02-26T00:17:35;4.90;90.00
3416;DHT22;1721;51.238;9.562;2024-02-26T00:20:02;4.90;90.00
3416;DHT22;1721;51.238;9.562;2024-02-26T00:22:30;5.00;90.20
3416;DHT22;1721;51.238;9.562;2024-02-26T00:24:55;5.00;90.00
3416;DHT22;1721;51.238;9.562;2024-02-26T00:27:21;5.00;90.10
3416;DHT22;1721;51.238;9.562;2024-02-26T00:29:46;5.10;90.00
3416;DHT22;1721;51.238;9.562;2024-02-26T00:32:12;5.20;90.00
3416;DHT22;1721;51.238;9.562;2024-02-26T00:34:37;5.20;89.60
3416;DHT22;1721;51.238;9.562;2024-02-26T00:37:03;5.30;89.40
3416;DHT22;1721;51.238;9.562;2024-02-26T00:39:29;5.40;89.60
3416;DHT22;1721;51.238;9.562;2024-02-26T00:41:54;5.40;89.10
3416;DHT22;1721;51.238;9.562;2024-02-26T00:44:20;5.30;88.40
3416;DHT22;1721;51.238;9.562;2024-02-26T00:46:45;5.30;88.80
3416;DHT22;1721;51.238;9.562;2024-02-26T00:49:11;5.30;89.10
3416;DHT22;1721;51.238;9.562;2024-02-26T00:51:36;5.30;89.00
3416;DHT22;1721;51.238;9.562;2024-02-26T00:54:02;5.20;88.80
3416;DHT22;1721;51.238;9.562;2024-02-26T00:56:28;5.10;89.30
3416;DHT22;1721;51.238;9.562;2024-02-26T00:58:53;5.10;89.20
3416;DHT22;1721;51.238;9.562;2024-02-26T01:01:19;5.10;89.60
3416;DHT22;1721;51.238;9.562;2024-02-26T01:03:45;5.10;89.40
3416;DHT22;1721;51.238;9.562;2024-02-26T01:06:10;5.20;89.60
3416;DHT22;1721;51.238;9.562;2024-02-26T01:08:36;5.10;89.40
3416;DHT22;1721;51.238;9.562;2024-02-26T01:11:03;5.10;89.80
3416;DHT22;1721;51.238;9.562;2024-02-26T01:13:28;5.10;89.70
3416;DHT22;1721;51.238;9.562;2024-02-26T01:15:54;5.10;89.70
3416;DHT22;1721;51.238;9.562;2024-02-26T01:18:20;5.10;89.40
3416;DHT22;1721;51.238;9.562;2024-02-26T01:20:46;5.10;89.40
3416;DHT22;1721;51.238;9.562;2024-02-26T01:23:12;5.10;89.60
3416;DHT22;1721;51.238;9.562;2024-02-26T01:25:38;5.00;89.20
3416;DHT22;1721;51.238;9.562;2024-02-26T01:28:04;5.00;89.50
3416;DHT22;1721;51.238;9.562;2024-02-26T01:30:30;4.90;90.00
3416;DHT22;1721;51.238;9.562;2024-02-26T01:32:56;5.00;90.00
3416;DHT22;1721;51.238;9.562;2024-02-26T01:35:22;5.00;89.80
3416;DHT22;1721;51.238;9.562;2024-02-26T01:37:47;5.00;89.60
3416;DHT22;1721;51.238;9.562;2024-02-26T01:40:13;4.90;89.50
3416;DHT22;1721;51.238;9.562;2024-02-26T01:42:43;5.00;90.00
3416;DHT22;1721;51.238;9.562;2024-02-26T01:45:14;5.00;89.80
3416;DHT22;1721;51.238;9.562;2024-02-26T01:47:41;5.00;90.00
3416;DHT22;1721;51.238;9.562;2024-02-26T01:50:08;5.00;89.60
3416;DHT22;1721;51.238;9.562;2024-02-26T01:52:34;5.10;89.70
3416;DHT22;1721;51.238;9.562;2024-02-26T01:54:59;5.10;89.80
3416;DHT22;1721;51.238;9.562;2024-02-26T01:57:27;5.10;89.70
3416;DHT22;1721;51.238;9.562;2024-02-26T01:59:53;5.20;89.80
3416;DHT22;1721;51.238;9.562;2024-02-26T02:02:19;5.00;90.00
3416;DHT22;1721;51.238;9.562;2024-02-26T02:04:44;4.90;90.20
3416;DHT22;1721;51.238;9.562;2024-02-26T02:07:10;5.00;90.30
3416;DHT22;1721;51.238;9.562;2024-02-26T02:09:36;5.20;90.30
3416;DHT22;1721;51.238;9.562;2024-02-26T02:12:02;5.20;90.00
3416;DHT22;1721;51.238;9.562;2024-02-26T02:14:27;5.20;90.00
3416;DHT22;1721;51.238;9.562;2024-02-26T02:16:53;5.30;90.10
3416;DHT22;1721;51.238;9.562;2024-02-26T02:19:19;5.40;89.80
3416;DHT22;1721;51.238;9.562;2024-02-26T02:21:44;5.40;89.40
3416;DHT22;1721;51.238;9.562;2024-02-26T02:24:10;5.40;89.50
3416;DHT22;1721;51.238;9.562;2024-02-26T02:26:35;5.40;88.80
3416;DHT22;1721;51.238;9.562;2024-02-26T02:29:02;5.40;88.80
3416;DHT22;1721;51.238;9.562;2024-02-26T02:31:28;5.10;90.10
3416;DHT22;1721;51.238;9.562;2024-02-26T02:33:53;5.30;90.10
3416;DHT22;1721;51.238;9.562;2024-02-26T02:36:19;5.40;89.60
3416;DHT22;1721;51.238;9.562;2024-02-26T02:38:51;5.50;89.30
3416;DHT22;1721;51.238;9.562;2024-02-26T02:41:17;5.40;88.90
3416;DHT22;1721;51.238;9.562;2024-02-26T02:43:42;5.40;89.10
3416;DHT22;1721;51.238;9.562;2024-02-26T02:46:08;5.20;89.20
3416;DHT22;1721;51.238;9.562;2024-02-26T02:48:34;5.20;89.40
3416;DHT22;1721;51.238;9.562;2024-02-26T02:50:59;5.20;89.80
3416;DHT22;1721;51.238;9.562;2024-02-26T02:53:25;5.20;90.10
3416;DHT22;1721;51.238;9.562;2024-02-26T02:55:50;5.30;89.70
3416;DHT22;1721;51.238;9.562;2024-02-26T02:58:16;5.30;89.80
3416;DHT22;1721;51.238;9.562;2024-02-26T03:00:41;5.40;89.80
3416;DHT22;1721;51.238;9.562;2024-02-26T03:03:07;5.40;89.80
3416;DHT22;1721;51.238;9.562;2024-02-26T03:05:32;5.40;89.80
3416;DHT22;1721;51.238;9.562;2024-02-26T03:07:58;5.40;89.70
3416;DHT22;1721;51.238;9.562;2024-02-26T03:10:23;5.50;89.90
3416;DHT22;1721;51.238;9.562;2024-02-26T03:12:49;5.50;89.50
3416;DHT22;1721;51.238;9.562;2024-02-26T03:15:15;5.50;89.60
3416;DHT22;1721;51.238;9.562;2024-02-26T03:17:41;5.50;89.60
3416;DHT22;1721;51.238;9.562;2024-02-26T03:20:07;5.50;89.20
3416;DHT22;1721;51.238;9.562;2024-02-26T03:22:35;5.60;89.80
3416;DHT22;1721;51.238;9.562;2024-02-26T03:25:00;5.60;89.40
3416;DHT22;1721;51.238;9.562;2024-02-26T03:27:26;5.70;89.60
3416;DHT22;1721;51.238;9.562;2024-02-26T03:29:51;5.60;89.80
3416;DHT22;1721;51.238;9.562;2024-02-26T03:32:18;5.70;90.00
3416;DHT22;1721;51.238;9.562;2024-02-26T03:34:43;5.70;89.80
3416;DHT22;1721;51.238;9.562;2024-02-26T03:37:09;5.80;89.80
3416;DHT22;1721;51.238;9.562;2024-02-26T03:39:36;5.80;89.40
3416;DHT22;1721;51.238;9.562;2024-02-26T03:42:03;5.80;89.40
3416;DHT22;1721;51.238;9.562;2024-02-26T03:44:28;5.90;89.30
3416;DHT22;1721;51.238;9.562;2024-02-26T03:46:54;5.90;88.80
3416;DHT22;1721;51.238;9.562;2024-02-26T03:49:19;6.00;89.30
3416;DHT22;1721;51.238;9.562;2024-02-26T03:51:45;6.00;88.90
3416;DHT22;1721;51.238;9.562;2024-02-26T03:54:10;6.00;88.50
3416;DHT22;1721;51.238;9.562;2024-02-26T03:56:36;5.90;88.50
3416;DHT22;1721;51.238;9.562;2024-02-26T03:59:01;5.90;88.10
3416;DHT22;1721;51.238;9.562;2024-02-26T04:01:27;5.90;88.40
3416;DHT22;1721;51.238;9.562;2024-02-26T04:03:54;5.90;88.90
3416;DHT22;1721;51.238;9.562;2024-02-26T04:06:20;5.90;88.60
3416;DHT22;1721;51.238;9.562;2024-02-26T04:08:46;5.90;88.70
3416;DHT22;1721;51.238;9.562;2024-02-26T04:11:12;5.80;88.50
3416;DHT22;1721;51.238;9.562;2024-02-26T04:13:38;6.00;88.80
3416;DHT22;1721;51.238;9.562;2024-02-26T04:16:05;6.00;88.90
3416;DHT22;1721;51.238;9.562;2024-02-26T04:18:31;6.00;88.60
3416;DHT22;1721;51.238;9.562;2024-02-26T04:20:57;6.00;88.50
3416;DHT22;1721;51.238;9.562;2024-02-26T04:23:23;5.90;88.80
3416;DHT22;1721;51.238;9.562;2024-02-26T04:25:48;5.90;88.80
3416;DHT22;1721;51.238;9.562;2024-02-26T04:28:14;5.90;88.50
3416;DHT22;1721;51.238;9.562;2024-02-26T04:30:40;5.90;88.50
3416;DHT22;1721;51.238;9.562;2024-02-26T04:33:06;5.90;88.80
3416;DHT22;1721;51.238;9.562;2024-02-26T04:35:31;6.00;89.20
3416;DHT22;1721;51.238;9.562;2024-02-26T04:37:57;6.20;88.90
3416;DHT22;1721;51.238;9.562;2024-02-26T04:40:23;6.20;88.90
3416;DHT22;1721;51.238;9.562;2024-02-26T04:42:49;6.30;87.90
3416;DHT22;1721;51.238;9.562;2024-02-26T04:45:15;6.10;88.40
3416;DHT22;1721;51.238;9.562;2024-02-26T04:47:41;6.10;89.50
3416;DHT22;1721;51.238;9.562;2024-02-26T04:50:07;6.10;89.50
3416;DHT22;1721;51.238;9.562;2024-02-26T04:52:32;6.20;89.30
3416;DHT22;1721;51.238;9.562;2024-02-26T04:54:58;6.20;89.00
3416;DHT22;1721;51.238;9.562;2024-02-26T04:57:25;6.20;89.60
3416;DHT22;1721;51.238;9.562;2024-02-26T04:59:51;6.30;89.80
3416;DHT22;1721;51.238;9.562;2024-02-26T05:02:17;6.10;89.10
3416;DHT22;1721;51.238;9.562;2024-02-26T05:04:43;6.10;89.10
3416;DHT22;1721;51.238;9.562;2024-02-26T05:07:08;6.20;89.20
3416;DHT22;1721;51.238;9.562;2024-02-26T05:09:34;6.20;88.60
3416;DHT22;1721;51.238;9.562;2024-02-26T05:12:00;6.20;88.80
3416;DHT22;1721;51.238;9.562;2024-02-26T05:14:26;6.20;88.60
3416;DHT22;1721;51.238;9.562;2024-02-26T05:16:51;6.20;88.60
3416;DHT22;1721;51.238;9.562;2024-02-26T05:19:17;6.10;89.00
3416;DHT22;1721;51.238;9.562;2024-02-26T05:21:42;6.10;88.80
3416;DHT22;1721;51.238;9.562;2024-02-26T05:24:09;6.10;88.80
3416;DHT22;1721;51.238;9.562;2024-02-26T05:26:35;6.10;89.20
3416;DHT22;1721;51.238;9.562;2024-02-26T05:29:00;6.00;88.80
3416;DHT22;1721;51.238;9.562;2024-02-26T05:31:26;5.90;89.30
3416;DHT22;1721;51.238;9.562;2024-02-26T05:33:52;6.00;89.20
3416;DHT22;1721;51.238;9.562;2024-02-26T05:36:22;6.00;88.70
3416;DHT22;1721;51.238;9.562;2024-02-26T05:38:48;6.10;89.80
3416;DHT22;1721;51.238;9.562;2024-02-26T05:41:15;6.20;89.40
3416;DHT22;1721;51.238;9.562;2024-02-26T05:43:42;6.30;89.00
3416;DHT22;1721;51.238;9.562;2024-02-26T05:46:07;6.20;88.90
3416;DHT22;1721;51.238;9.562;2024-02-26T05:48:33;6.20;89.70
3416;DHT22;1721;51.238;9.562;2024-02-26T05:50:59;6.30;89.50
3416;DHT22;1721;51.238;9.562;2024-02-26T05:53:24;6.30;89.30
3416;DHT22;1721;51.238;9.562;2024-02-26T05:55:50;6.40;88.90
3416;DHT22;1721;51.238;9.562;2024-02-26T05:58:16;6.50;89.00
3416;DHT22;1721;51.238;9.562;2024-02-26T06:00:41;6.50;88.80
3416;DHT22;1721;51.238;9.562;2024-02-26T06:03:07;6.60;88.60
3416;DHT22;1721;51.238;9.562;2024-02-26T06:05:32;6.50;88.60
3416;DHT22;1721;51.238;9.562;2024-02-26T06:07:58;6.50;89.20
3416;DHT22;1721;51.238;9.562;2024-02-26T06:10:24;6.60;88.70
3416;DHT22;1721;51.238;9.562;2024-02-26T06:12:49;6.50;88.80
3416;DHT22;1721;51.238;9.562;2024-02-26T06:15:15;6.50;88.80
3416;DHT22;1721;51.238;9.562;2024-02-26T06:17:40;6.40;89.40
3416;DHT22;1721;51.238;9.562;2024-02-26T06:20:06;6.40;89.20
3416;DHT22;1721;51.238;9.562;2024-02-26T06:22:37;6.40;88.60
3416;DHT22;1721;51.238;9.562;2024-02-26T06:25:02;6.40;88.90
3416;DHT22;1721;51.238;9.562;2024-02-26T06:27:28;6.00;88.50
3416;DHT22;1721;51.238;9.562;2024-02-26T06:29:53;5.80;90.10
3416;DHT22;1721;51.238;9.562;2024-02-26T06:32:19;6.00;90.30
3416;DHT22;1721;51.238;9.562;2024-02-26T06:34:44;6.10;89.90
3416;DHT22;1721;51.238;9.562;2024-02-26T06:37:10;6.20;89.90
3416;DHT22;1721;51.238;9.562;2024-02-26T06:39:36;6.50;89.60
3416;DHT22;1721;51.238;9.562;2024-02-26T06:42:01;6.60;89.40
3416;DHT22;1721;51.238;9.562;2024-02-26T06:44:27;6.70;88.90
3416;DHT22;1721;51.238;9.562;2024-02-26T06:46:58;6.80;88.70
3416;DHT22;1721;51.238;9.562;2024-02-26T06:49:24;6.80;88.10
3416;DHT22;1721;51.238;9.562;2024-02-26T06:51:49;6.70;87.70
3416;DHT22;1721;51.238;9.562;2024-02-26T06:54:15;6.80;87.70
3416;DHT22;1721;51.238;9.562;2024-02-26T06:56:40;6.80;87.80
3416;DHT22;1721;51.238;9.562;2024-02-26T06:59:06;7.00;87.30
3416;DHT22;1721;51.238;9.562;2024-02-26T07:01:31;6.90;87.30
3416;DHT22;1721;51.238;9.562;2024-02-26T07:03:57;6.70;88.00
3416;DHT22;1721;51.238;9.562;2024-02-26T07:06:22;6.80;88.40
3416;DHT22;1721;51.238;9.562;2024-02-26T07:08:48;7.00;88.00
3416;DHT22;1721;51.238;9.562;2024-02-26T07:11:13;7.10;88.00
3416;DHT22;1721;51.238;9.562;2024-02-26T07:13:39;7.20;87.50
3416;DHT22;1721;51.238;9.562;2024-02-26T07:16:05;7.40;88.40
3416;DHT22;1721;51.238;9.562;2024-02-26T07:18:31;7.30;88.00
3416;DHT22;1721;51.238;9.562;2024-02-26T07:20:56;7.50;87.70
3416;DHT22;1721;51.238;9.562;2024-02-26T07:23:22;7.50;86.80
3416;DHT22;1721;51.238;9.562;2024-02-26T07:25:47;7.50;87.50
3416;DHT22;1721;51.238;9.562;2024-02-26T07:28:15;7.50;87.20
3416;DHT22;1721;51.238;9.562;2024-02-26T07:30:40;7.60;87.70
3416;DHT22;1721;51.238;9.562;2024-02-26T07:33:06;7.40;87.50
3416;DHT22;1721;51.238;9.562;2024-02-26T07:35:32;7.60;87.80
3416;DHT22;1721;51.238;9.562;2024-02-26T07:37:58;7.50;88.50
3416;DHT22;1721;51.238;9.562;2024-02-26T07:40:24;7.60;88.60
3416;DHT22;1721;51.238;9.562;2024-02-26T07:42:50;7.60;87.70
3416;DHT22;1721;51.238;9.562;2024-02-26T07:45:15;7.50;87.90
3416;DHT22;1721;51.238;9.562;2024-02-26T07:47:43;7.60;88.80
3416;DHT22;1721;51.238;9.562;2024-02-26T07:50:08;7.90;88.70
3416;DHT22;1721;51.238;9.562;2024-02-26T07:52:34;8.00;89.10
3416;DHT22;1721;51.238;9.562;2024-02-26T07:55:00;8.00;88.10
3416;DHT22;1721;51.238;9.562;2024-02-26T07:57:25;8.20;87.80
3416;DHT22;1721;51.238;9.562;2024-02-26T07:59:51;8.40;87.80
3416;DHT22;1721;51.238;9.562;2024-02-26T08:02:17;8.60;87.30
3416;DHT22;1721;51.238;9.562;2024-02-26T08:04:42;8.80;87.40
3416;DHT22;1721;51.238;9.562;2024-02-26T08:07:08;9.10;87.20
3416;DHT22;1721;51.238;9.562;2024-02-26T08:09:33;9.30;85.60
3416;DHT22;1721;51.238;9.562;2024-02-26T08:11:59;9.30;86.80
3416;DHT22;1721;51.238;9.562;2024-02-26T08:14:24;9.50;86.10
3416;DHT22;1721;51.238;9.562;2024-02-26T08:16:50;9.30;85.70
3416;DHT22;1721;51.238;9.562;2024-02-26T08:19:15;9.60;86.00
3416;DHT22;1721;51.238;9.562;2024-02-26T08:21:43;9.60;84.90
3416;DHT22;1721;51.238;9.562;2024-02-26T08:24:08;9.70;85.20
3416;DHT22;1721;51.238;9.562;2024-02-26T08:26:34;9.90;85.20
3416;DHT22;1721;51.238;9.562;2024-02-26T08:28:59;9.90;83.70
3416;DHT22;1721;51.238;9.562;2024-02-26T08:31:25;9.80;84.20
3416;DHT22;1721;51.238;9.562;2024-02-26T08:33:51;10.00;82.90
3416;DHT22;1721;51.238;9.562;2024-02-26T08:36:16;9.90;83.50
3416;DHT22;1721;51.238;9.562;2024-02-26T08:38:42;10.10;82.90
3416;DHT22;1721;51.238;9.562;2024-02-26T08:41:07;10.20;82.80
3416;DHT22;1721;51.238;9.562;2024-02-26T08:43:33;10.40;81.80
3416;DHT22;1721;51.238;9.562;2024-02-26T08:45:58;10.50;82.40
3416;DHT22;1721;51.238;9.562;2024-02-26T08:48:24;10.70;82.20
3416;DHT22;1721;51.238;9.562;2024-02-26T08:50:49;10.90;81.90
3416;DHT22;1721;51.238;9.562;2024-02-26T08:53:15;11.00;81.80
3416;DHT22;1721;51.238;9.562;2024-02-26T08:55:40;11.00;81.70
3416;DHT22;1721;51.238;9.562;2024-02-26T08:58:06;11.10;81.50
3416;DHT22;1721;51.238;9.562;2024-02-26T09:00:31;11.20;81.40
3416;DHT22;1721;51.238;9.562;2024-02-26T09:02:57;11.20;80.30
3416;DHT22;1721;51.238;9.562;2024-02-26T09:05:23;11.30;79.60
3416;DHT22;1721;51.238;9.562;2024-02-26T09:07:48;11.30;80.10
3416;DHT22;1721;51.238;9.562;2024-02-26T09:10:14;11.30;80.00
3416;DHT22;1721;51.238;9.562;2024-02-26T09:12:39;11.20;79.90
3416;DHT22;1721;51.238;9.562;2024-02-26T09:15:06;11.10;79.10
3416;DHT22;1721;51.238;9.562;2024-02-26T09:17:32;10.90;79.30
3416;DHT22;1721;51.238;9.562;2024-02-26T09:19:58;10.80;80.00
3416;DHT22;1721;51.238;9.562;2024-02-26T09:22:23;10.60;80.40
3416;DHT22;1721;51.238;9.562;2024-02-26T09:24:49;10.50;81.90
3416;DHT22;1721;51.238;9.562;2024-02-26T09:27:16;10.60;81.30
3416;DHT22;1721;51.238;9.562;2024-02-26T09:29:42;10.40;80.70
3416;DHT22;1721;51.238;9.562;2024-02-26T09:32:08;10.50;80.20
3416;DHT22;1721;51.238;9.562;2024-02-26T09:34:33;10.10;80.30
3416;DHT22;1721;51.238;9.562;2024-02-26T09:36:59;10.10;80.50
3416;DHT22;1721;51.238;9.562;2024-02-26T09:39:26;10.30;78.80
3416;DHT22;1721;51.238;9.562;2024-02-26T09:41:53;10.10;79.50
3416;DHT22;1721;51.238;9.562;2024-02-26T09:44:19;10.00;80.30
3416;DHT22;1721;51.238;9.562;2024-02-26T09:46:48;10.10;81.50
3416;DHT22;1721;51.238;9.562;2024-02-26T09:49:19;10.20;80.80
3416;DHT22;1721;51.238;9.562;2024-02-26T09:51:45;10.30;79.90
3416;DHT22;1721;51.238;9.562;2024-02-26T09:54:13;10.50;79.90
3416;DHT22;1721;51.238;9.562;2024-02-26T09:56:39;10.80;79.20
3416;DHT22;1721;51.238;9.562;2024-02-26T09:59:10;10.60;79.10
3416;DHT22;1721;51.238;9.562;2024-02-26T10:01:39;10.50;79.70
3416;DHT22;1721;51.238;9.562;2024-02-26T10:04:08;10.70;80.20
3416;DHT22;1721;51.238;9.562;2024-02-26T10:06:34;10.80;78.80
3416;DHT22;1721;51.238;9.562;2024-02-26T10:09:01;10.90;78.90
3416;DHT22;1721;51.238;9.562;2024-02-26T10:11:32;10.90;78.80
3416;DHT22;1721;51.238;9.562;2024-02-26T10:13:57;10.80;79.20
3416;DHT22;1721;51.238;9.562;2024-02-26T10:16:25;10.80;78.80
3416;DHT22;1721;51.238;9.562;2024-02-26T10:18:52;10.90;78.80
3416;DHT22;1721;51.238;9.562;2024-02-26T10:21:20;10.90;79.40
3416;DHT22;1721;51.238;9.562;2024-02-26T10:23:46;11.20;79.40
3416;DHT22;1721;51.238;9.562;2024-02-26T10:26:13;11.10;78.10
3416;DHT22;1721;51.238;9.562;2024-02-26T10:28:40;11.10;78.60
3416;DHT22;1721;51.238;9.562;2024-02-26T10:31:06;11.10;78.10
3416;DHT22;1721;51.238;9.562;2024-02-26T10:33:38;11.10;78.50
3416;DHT22;1721;51.238;9.562;2024-02-26T10:36:05;11.40;79.00
3416;DHT22;1721;51.238;9.562;2024-02-26T10:38:32;11.60;78.30
3416;DHT22;1721;51.238;9.562;2024-02-26T10:40:58;11.70;77.40
3416;DHT22;1721;51.238;9.562;2024-02-26T10:43:25;11.60;77.90
3416;DHT22;1721;51.238;9.562;2024-02-26T10:45:51;11.40;77.10
3416;DHT22;1721;51.238;9.562;2024-02-26T10:48:17;11.30;78.40
3416;DHT22;1721;51.238;9.562;2024-02-26T10:50:43;11.00;77.50
3416;DHT22;1721;51.238;9.562;2024-02-26T10:53:17;10.90;79.00
3416;DHT22;1721;51.238;9.562;2024-02-26T10:55:57;10.80;79.30
3416;DHT22;1721;51.238;9.562;2024-02-26T10:58:25;10.70;79.90
3416;DHT22;1721;51.238;9.562;2024-02-26T11:00:51;10.80;80.00
3416;DHT22;1721;51.238;9.562;2024-02-26T11:03:18;11.10;79.00
3416;DHT22;1721;51.238;9.562;2024-02-26T11:05:47;11.10;78.90
3416;DHT22;1721;51.238;9.562;2024-02-26T11:08:14;11.40;79.50
3416;DHT22;1721;51.238;9.562;2024-02-26T11:10:40;11.70;78.50
3416;DHT22;1721;51.238;9.562;2024-02-26T11:13:09;11.70;78.90
3416;DHT22;1721;51.238;9.562;2024-02-26T11:15:37;12.10;78.90
3416;DHT22;1721;51.238;9.562;2024-02-26T11:18:04;12.00;78.10
3416;DHT22;1721;51.238;9.562;2024-02-26T11:20:30;12.00;78.70
3416;DHT22;1721;51.238;9.562;2024-02-26T11:22:57;11.90;78.70
3416;DHT22;1721;51.238;9.562;2024-02-26T11:25:23;12.00;78.30
3416;DHT22;1721;51.238;9.562;2024-02-26T11:28:01;11.70;78.10
3416;DHT22;1721;51.238;9.562;2024-02-26T11:30:32;11.70;78.50
3416;DHT22;1721;51.238;9.562;2024-02-26T11:32:59;11.40;79.40
3416;DHT22;1721;51.238;9.562;2024-02-26T11:35:25;11.40;79.40
3416;DHT22;1721;51.238;9.562;2024-02-26T11:37:54;11.40;79.60
3416;DHT22;1721;51.238;9.562;2024-02-26T11:40:23;11.40;79.00
3416;DHT22;1721;51.238;9.562;2024-02-26T11:42:49;11.20;79.20
3416;DHT22;1721;51.238;9.562;2024-02-26T11:48:14;11.30;81.10
3416;DHT22;1721;51.238;9.562;2024-02-26T11:50:41;11.40;79.90
3416;DHT22;1721;51.238;9.562;2024-02-26T11:55:48;11.60;80.10
3416;DHT22;1721;51.238;9.562;2024-02-26T11:58:33;11.70;78.40
3416;DHT22;1721;51.238;9.562;2024-02-26T12:00:59;11.60;79.10
3416;DHT22;1721;51.238;9.562;2024-02-26T12:03:25;11.50;79.10
3416;DHT22;1721;51.238;9.562;2024-02-26T12:05:51;11.50;78.70
3416;DHT22;1721;51.238;9.562;2024-02-26T12:08:17;11.50;79.00
3416;DHT22;1721;51.238;9.562;2024-02-26T12:10:45;11.60;78.00
3416;DHT22;1721;51.238;9.562;2024-02-26T12:13:15;11.60;77.90
3416;DHT22;1721;51.238;9.562;2024-02-26T12:15:41;11.80;77.70
3416;DHT22;1721;51.238;9.562;2024-02-26T12:18:08;12.00;77.10
3416;DHT22;1721;51.238;9.562;2024-02-26T12:20:36;12.10;77.10
3416;DHT22;1721;51.238;9.562;2024-02-26T12:23:02;12.10;76.90
3416;DHT22;1721;51.238;9.562;2024-02-26T12:25:30;12.20;77.00
3416;DHT22;1721;51.238;9.562;2024-02-26T12:27:57;12.20;77.40
3416;DHT22;1721;51.238;9.562;2024-02-26T12:30:23;12.30;77.00
3416;DHT22;1721;51.238;9.562;2024-02-26T12:32:50;12.20;76.40
3416;DHT22;1721;51.238;9.562;2024-02-26T12:35:16;12.10;76.90
3416;DHT22;1721;51.238;9.562;2024-02-26T12:37:43;11.80;77.80
3416;DHT22;1721;51.238;9.562;2024-02-26T12:40:09;11.60;77.40
3416;DHT22;1721;51.238;9.562;2024-02-26T12:42:36;11.40;79.60
3416;DHT22;1721;51.238;9.562;2024-02-26T12:45:12;11.50;79.50
3416;DHT22;1721;51.238;9.562;2024-02-26T12:47:38;11.50;78.40
3416;DHT22;1721;51.238;9.562;2024-02-26T12:50:05;11.40;79.00
3416;DHT22;1721;51.238;9.562;2024-02-26T12:52:34;11.40;78.20
3416;DHT22;1721;51.238;9.562;2024-02-26T12:55:02;11.50;78.00
3416;DHT22;1721;51.238;9.562;2024-02-26T12:57:32;11.80;77.30
3416;DHT22;1721;51.238;9.562;2024-02-26T13:00:02;11.90;76.10
3416;DHT22;1721;51.238;9.562;2024-02-26T13:02:29;11.70;77.10
3416;DHT22;1721;51.238;9.562;2024-02-26T13:04:55;11.90;77.30
3416;DHT22;1721;51.238;9.562;2024-02-26T13:07:22;12.00;77.70
3416;DHT22;1721;51.238;9.562;2024-02-26T13:09:48;12.20;76.90
3416;DHT22;1721;51.238;9.562;2024-02-26T13:12:14;12.20;75.80
3416;DHT22;1721;51.238;9.562;2024-02-26T13:14:40;12.20;75.50
3416;DHT22;1721;51.238;9.562;2024-02-26T13:17:05;12.20;76.20
3416;DHT22;1721;51.238;9.562;2024-02-26T13:19:31;12.30;75.60
3416;DHT22;1721;51.238;9.562;2024-02-26T13:22:06;12.10;76.70
3416;DHT22;1721;51.238;9.562;2024-02-26T13:24:35;12.20;76.00
3416;DHT22;1721;51.238;9.562;2024-02-26T13:27:02;12.40;76.30
3416;DHT22;1721;51.238;9.562;2024-02-26T13:29:30;12.40;75.50
3416;DHT22;1721;51.238;9.562;2024-02-26T13:31:59;12.40;75.80
3416;DHT22;1721;51.238;9.562;2024-02-26T13:34:25;12.50;76.00
3416;DHT22;1721;51.238;9.562;2024-02-26T13:36:52;12.70;74.80
3416;DHT22;1721;51.238;9.562;2024-02-26T13:39:28;12.50;75.60
3416;DHT22;1721;51.238;9.562;2024-02-26T13:41:54;12.10;76.40
3416;DHT22;1721;51.238;9.562;2024-02-26T13:44:20;12.10;76.70
3416;DHT22;1721;51.238;9.562;2024-02-26T13:46:46;12.20;76.40
3416;DHT22;1721;51.238;9.562;2024-02-26T13:49:12;12.40;76.10
3416;DHT22;1721;51.238;9.562;2024-02-26T13:51:39;12.40;75.40
3416;DHT22;1721;51.238;9.562;2024-02-26T13:54:04;12.50;76.00
3416;DHT22;1721;51.238;9.562;2024-02-26T13:56:31;12.70;75.30
3416;DHT22;1721;51.238;9.562;2024-02-26T13:58:57;12.60;75.40
3416;DHT22;1721;51.238;9.562;2024-02-26T14:01:23;12.80;74.70
3416;DHT22;1721;51.238;9.562;2024-02-26T14:03:49;12.60;75.30
3416;DHT22;1721;51.238;9.562;2024-02-26T14:06:15;12.70;74.90
3416;DHT22;1721;51.238;9.562;2024-02-26T14:08:40;12.80;75.20
3416;DHT22;1721;51.238;9.562;2024-02-26T14:11:06;13.00;75.40
3416;DHT22;1721;51.238;9.562;2024-02-26T14:13:31;12.80;75.50
3416;DHT22;1721;51.238;9.562;2024-02-26T14:15:57;12.80;75.10
3416;DHT22;1721;51.238;9.562;2024-02-26T14:18:23;13.00;73.90
3416;DHT22;1721;51.238;9.562;2024-02-26T14:20:48;12.30;74.40
3416;DHT22;1721;51.238;9.562;2024-02-26T14:23:14;11.90;75.60
3416;DHT22;1721;51.238;9.562;2024-02-26T14:25:40;11.50;76.00
3416;DHT22;1721;51.238;9.562;2024-02-26T14:28:05;11.30;76.30
3416;DHT22;1721;51.238;9.562;2024-02-26T14:30:31;11.20;77.90
3416;DHT22;1721;51.238;9.562;2024-02-26T14:32:58;11.10;77.90
3416;DHT22;1721;51.238;9.562;2024-02-26T14:35:23;11.40;77.10
3416;DHT22;1721;51.238;9.562;2024-02-26T14:37:49;11.60;76.80
3416;DHT22;1721;51.238;9.562;2024-02-26T14:40:15;11.70;77.10
3416;DHT22;1721;51.238;9.562;2024-02-26T14:42:41;11.60;77.60
3416;DHT22;1721;51.238;9.562;2024-02-26T14:45:07;11.80;75.80
3416;DHT22;1721;51.238;9.562;2024-02-26T14:47:38;11.70;76.20
3416;DHT22;1721;51.238;9.562;2024-02-26T14:50:04;11.80;76.20
3416;DHT22;1721;51.238;9.562;2024-02-26T14:52:30;11.80;76.20
3416;DHT22;1721;51.238;9.562;2024-02-26T14:54:56;11.80;76.30
3416;DHT22;1721;51.238;9.562;2024-02-26T14:57:23;12.10;76.50
3416;DHT22;1721;51.238;9.562;2024-02-26T14:59:49;12.10;76.20
3416;DHT22;1721;51.238;9.562;2024-02-26T15:02:15;12.00;75.70
3416;DHT22;1721;51.238;9.562;2024-02-26T15:04:41;11.90;77.50
3416;DHT22;1721;51.238;9.562;2024-02-26T15:07:07;11.80;76.50
3416;DHT22;1721;51.238;9.562;2024-02-26T15:09:32;11.90;76.10
3416;DHT22;1721;51.238;9.562;2024-02-26T15:11:58;11.90;76.40
3416;DHT22;1721;51.238;9.562;2024-02-26T15:14:23;11.90;75.70
3416;DHT22;1721;51.238;9.562;2024-02-26T15:16:51;11.70;76.80
3416;DHT22;1721;51.238;9.562;2024-02-26T15:19:17;11.80;76.10
3416;DHT22;1721;51.238;9.562;2024-02-26T15:21:46;11.60;76.70
3416;DHT22;1721;51.238;9.562;2024-02-26T15:24:13;11.70;77.00
3416;DHT22;1721;51.238;9.562;2024-02-26T15:26:41;11.60;78.30
3416;DHT22;1721;51.238;9.562;2024-02-26T15:29:07;11.30;78.10
3416;DHT22;1721;51.238;9.562;2024-02-26T15:31:39;11.30;78.10
3416;DHT22;1721;51.238;9.562;2024-02-26T15:34:05;11.20;78.60
3416;DHT22;1721;51.238;9.562;2024-02-26T15:36:31;11.10;79.70
3416;DHT22;1721;51.238;9.562;2024-02-26T15:38:56;11.20;79.20
3416;DHT22;1721;51.238;9.562;2024-02-26T15:41:24;11.40;78.60
3416;DHT22;1721;51.238;9.562;2024-02-26T15:43:50;11.40;78.40
3416;DHT22;1721;51.238;9.562;2024-02-26T15:46:16;11.20;79.10
3416;DHT22;1721;51.238;9.562;2024-02-26T15:48:42;11.10;79.70
3416;DHT22;1721;51.238;9.562;2024-02-26T15:51:07;11.30;79.60
3416;DHT22;1721;51.238;9.562;2024-02-26T15:53:33;11.20;79.30
3416;DHT22;1721;51.238;9.562;2024-02-26T15:55:58;11.30;79.60
3416;DHT22;1721;51.238;9.562;2024-02-26T15:58:24;11.40;79.00
3416;DHT22;1721;51.238;9.562;2024-02-26T16:00:50;11.40;79.10
3416;DHT22;1721;51.238;9.562;2024-02-26T16:03:16;11.40;79.00
3416;DHT22;1721;51.238;9.562;2024-02-26T16:05:41;11.20;79.60
3416;DHT22;1721;51.238;9.562;2024-02-26T16:08:17;11.10;79.90